createdAt,value
2017-12-20T00:04:37.957Z,38.43
2017-12-20T00:10:41.424Z,36.33
2017-12-20T00:16:44.925Z,35.20
2017-12-20T00:22:48.495Z,41.80
2017-12-20T00:28:52.622Z,39.53
2017-12-20T00:34:56.342Z,34.47
2017-12-20T00:40:59.799Z,38.07
2017-12-20T00:47:03.393Z,41.67
2017-12-20T00:53:06.918Z,31.93
2017-12-20T00:59:11.279Z,39.83
2017-12-20T01:05:14.761Z,32.57
2017-12-20T01:11:18.993Z,34.00
2017-12-20T01:17:22.502Z,32.13
2017-12-20T01:23:26.056Z,38.47
2017-12-20T01:29:30.299Z,31.93
2017-12-20T01:35:33.804Z,36.23
2017-12-20T01:41:37.276Z,40.63
2017-12-20T01:47:40.870Z,44.33
2017-12-20T01:53:45.174Z,47.90
2017-12-20T01:59:48.684Z,34.33
2017-12-20T02:05:52.431Z,31.63
2017-12-20T02:11:55.970Z,29.80
2017-12-20T02:17:59.484Z,28.50
2017-12-20T02:24:03.766Z,28.33
2017-12-20T02:30:07.236Z,23.90
2017-12-20T02:36:11.654Z,27.90
2017-12-20T02:42:16.187Z,30.33
2017-12-20T02:48:19.690Z,26.43
2017-12-20T02:54:23.526Z,23.70
2017-12-20T03:00:27.869Z,29.40
2017-12-20T03:06:31.458Z,29.10
2017-12-20T03:12:35.221Z,28.90
2017-12-20T03:18:38.835Z,28.53
2017-12-20T03:24:42.480Z,26.70
2017-12-20T03:30:46.964Z,32.50
2017-12-20T03:36:50.601Z,30.93
2017-12-20T03:42:54.421Z,29.97
2017-12-20T03:48:57.912Z,31.70
2017-12-20T03:55:01.456Z,28.83
2017-12-20T04:01:04.988Z,32.30
2017-12-20T04:07:08.865Z,28.33
2017-12-20T04:13:12.478Z,27.37
2017-12-20T04:19:16.419Z,30.23
2017-12-20T04:25:20.649Z,30.30
2017-12-20T04:31:24.313Z,31.67
2017-12-20T04:37:27.825Z,27.80
2017-12-20T04:43:31.498Z,23.43
2017-12-20T04:49:35.486Z,29.90
2017-12-20T04:55:39.000Z,31.03
2017-12-20T05:01:42.508Z,28.70
2017-12-20T05:07:46.076Z,32.27
2017-12-20T05:13:49.785Z,30.17
2017-12-20T05:19:53.471Z,28.73
2017-12-20T05:25:57.111Z,35.17
2017-12-20T05:32:00.637Z,28.03
2017-12-20T05:38:04.154Z,33.50
2017-12-20T05:44:07.659Z,31.23
2017-12-20T05:50:11.264Z,30.80
2017-12-20T05:56:14.904Z,29.17
2017-12-20T06:02:18.490Z,29.77
2017-12-20T06:08:22.034Z,25.67
2017-12-20T06:14:25.594Z,25.80
2017-12-20T06:20:29.201Z,23.30
2017-12-20T06:26:32.726Z,20.53
2017-12-20T06:32:36.294Z,22.17
2017-12-20T06:38:39.799Z,25.60
2017-12-20T06:44:43.275Z,20.17
2017-12-20T06:50:47.650Z,17.53
2017-12-20T06:56:52.208Z,29.27
2017-12-20T07:02:56.580Z,24.60
2017-12-20T07:09:00.057Z,28.30
2017-12-20T07:15:04.317Z,27.07
2017-12-20T07:21:07.807Z,30.50
2017-12-20T07:27:11.373Z,38.30
2017-12-20T07:33:14.834Z,38.47
2017-12-20T07:39:18.327Z,33.80
2017-12-20T07:45:21.806Z,33.63
2017-12-20T07:51:26.076Z,31.67
2017-12-20T07:57:30.361Z,33.33
2017-12-20T08:03:33.844Z,28.03
2017-12-20T08:09:37.449Z,28.53
2017-12-20T08:15:41.097Z,28.50
2017-12-20T08:21:44.599Z,25.20
2017-12-20T08:27:48.091Z,26.73
2017-12-20T08:33:51.740Z,21.90
2017-12-20T08:39:55.256Z,25.00
2017-12-20T08:45:58.751Z,13.90
2017-12-20T08:52:02.226Z,18.07
2017-12-20T08:58:05.718Z,14.13
2017-12-20T09:04:09.292Z,12.93
2017-12-20T09:10:12.816Z,16.57
2017-12-20T09:16:16.580Z,17.40
2017-12-20T09:22:20.140Z,19.03
2017-12-20T09:28:23.830Z,19.90
2017-12-20T09:34:27.352Z,21.60
2017-12-20T09:40:30.978Z,16.80
2017-12-20T09:46:34.500Z,16.53
2017-12-20T09:52:38.036Z,20.77
2017-12-20T09:58:41.619Z,20.63
2017-12-20T10:04:45.130Z,16.30
2017-12-20T10:10:48.644Z,20.40
2017-12-20T10:16:53.502Z,14.87
2017-12-20T10:22:56.982Z,12.20
2017-12-20T10:29:00.490Z,11.67
2017-12-20T10:35:04.086Z,13.23
2017-12-20T10:41:07.551Z,14.10
2017-12-20T10:47:11.034Z,16.20
2017-12-20T10:53:14.547Z,17.43
2017-12-20T10:59:18.044Z,11.40
2017-12-20T11:05:21.625Z,15.03
2017-12-20T11:11:25.249Z,18.57
2017-12-20T11:17:29.582Z,13.63
2017-12-20T11:23:33.035Z,12.77
2017-12-20T11:29:36.575Z,12.63
2017-12-20T11:35:40.175Z,13.77
2017-12-20T11:41:43.844Z,17.20
2017-12-20T11:47:47.394Z,17.50
2017-12-20T11:53:51.474Z,15.00
2017-12-20T11:59:55.312Z,19.20
2017-12-20T12:05:58.916Z,15.67
2017-12-20T12:12:02.570Z,16.37
2017-12-20T12:18:06.042Z,11.33
2017-12-20T12:24:09.515Z,13.70
2017-12-20T12:30:13.019Z,12.10
2017-12-20T12:36:16.751Z,10.70
2017-12-20T12:42:21.000Z,9.90
2017-12-20T12:48:24.612Z,11.37
2017-12-20T12:54:28.097Z,13.47
2017-12-20T13:00:31.585Z,12.20
2017-12-20T13:06:35.900Z,12.60
2017-12-20T13:12:39.386Z,12.77
2017-12-20T13:18:42.975Z,9.43
2017-12-20T13:24:46.617Z,10.43
2017-12-20T13:30:50.115Z,10.27
2017-12-20T13:36:53.735Z,10.90
2017-12-20T13:42:57.984Z,10.90
2017-12-20T13:49:01.489Z,10.30
2017-12-20T13:55:05.007Z,11.20
2017-12-20T14:01:08.496Z,11.67
2017-12-20T14:07:12.030Z,10.70
2017-12-20T14:13:16.277Z,12.20
2017-12-20T14:19:19.755Z,13.40
2017-12-20T14:25:24.246Z,10.20
2017-12-20T14:31:27.737Z,11.00
2017-12-20T14:37:31.242Z,12.10
2017-12-20T14:43:35.480Z,10.10
2017-12-20T14:49:38.968Z,11.17
2017-12-20T14:55:43.240Z,12.53
2017-12-20T15:01:47.488Z,11.80
2017-12-20T15:07:51.303Z,11.00
2017-12-20T15:13:54.816Z,10.70
2017-12-20T15:19:59.081Z,14.63
2017-12-20T15:26:02.586Z,12.93
2017-12-20T15:32:06.379Z,13.80
2017-12-20T15:38:10.155Z,14.53
2017-12-20T15:44:13.758Z,20.73
2017-12-20T15:50:17.356Z,12.30
2017-12-20T15:56:21.107Z,15.37
2017-12-20T16:02:24.610Z,13.70
2017-12-20T16:08:28.084Z,11.37
2017-12-20T16:14:31.571Z,13.10
2017-12-20T16:20:35.087Z,13.27
2017-12-20T16:26:38.615Z,13.70
2017-12-20T16:32:42.188Z,9.40
2017-12-20T16:38:45.745Z,12.40
2017-12-20T16:44:49.235Z,10.57
2017-12-20T16:50:53.766Z,12.57
2017-12-20T16:56:57.330Z,11.93
2017-12-20T17:03:00.816Z,13.27
2017-12-20T17:09:04.280Z,12.13
2017-12-20T17:15:07.826Z,24.00
2017-12-20T17:21:11.334Z,13.30
2017-12-20T17:27:15.569Z,11.80
2017-12-20T17:33:19.105Z,17.27
2017-12-20T17:39:22.707Z,10.03
2017-12-20T17:45:26.947Z,13.97
2017-12-20T17:51:30.732Z,11.07
2017-12-20T17:57:34.208Z,13.10
2017-12-20T18:03:38.581Z,12.40
2017-12-20T18:09:42.845Z,14.23
2017-12-20T18:15:46.363Z,11.40
2017-12-20T18:21:49.900Z,14.83
2017-12-20T18:27:53.473Z,13.57
2017-12-20T18:33:57.020Z,14.20
2017-12-20T18:40:00.521Z,10.97
2017-12-20T18:46:04.770Z,12.43
2017-12-20T18:52:08.302Z,11.57
2017-12-20T18:58:11.969Z,8.87
2017-12-20T19:04:16.452Z,10.80
2017-12-20T19:10:19.974Z,13.90
2017-12-20T19:16:23.884Z,13.83
2017-12-20T19:22:27.418Z,9.13
2017-12-20T19:28:31.019Z,9.67
2017-12-20T19:34:34.655Z,11.37
2017-12-20T19:40:38.190Z,9.83
2017-12-20T19:46:41.704Z,12.77
2017-12-20T19:52:45.324Z,12.57
2017-12-20T19:58:49.867Z,11.37
2017-12-20T20:04:53.615Z,11.33
2017-12-20T20:10:57.953Z,9.43
2017-12-20T20:17:02.609Z,10.27
2017-12-20T20:23:06.094Z,10.90
2017-12-20T20:29:09.571Z,14.50
2017-12-20T20:35:13.051Z,12.47
2017-12-20T20:41:16.757Z,10.10
2017-12-20T20:47:21.152Z,13.17
2017-12-20T20:53:25.225Z,10.93
2017-12-20T20:59:28.767Z,11.90
2017-12-20T21:05:32.321Z,10.57
2017-12-20T21:11:36.110Z,10.87
2017-12-20T21:17:39.586Z,10.97
2017-12-20T21:23:43.095Z,20.13
2017-12-20T21:29:46.626Z,12.57
2017-12-20T21:35:50.973Z,14.00
2017-12-20T21:41:54.528Z,10.70
2017-12-20T21:47:58.768Z,9.13
2017-12-20T21:54:02.258Z,9.20
2017-12-20T22:00:05.760Z,10.27
2017-12-20T22:06:09.310Z,11.57
2017-12-20T22:12:12.833Z,10.43
2017-12-20T22:18:17.112Z,9.50
2017-12-20T22:24:21.431Z,9.93
2017-12-20T22:30:26.904Z,13.00
2017-12-20T22:36:30.425Z,10.57
2017-12-20T22:42:33.926Z,11.17
2017-12-20T22:48:37.411Z,13.97
2017-12-20T22:54:40.943Z,12.73
2017-12-20T23:00:44.415Z,11.40
2017-12-20T23:06:47.909Z,12.60
2017-12-20T23:12:51.529Z,16.73
2017-12-20T23:18:55.018Z,12.37
2017-12-20T23:24:59.283Z,17.73
2017-12-20T23:31:02.995Z,14.77
2017-12-20T23:37:06.716Z,15.20
2017-12-20T23:43:10.342Z,13.83
2017-12-20T23:49:13.836Z,19.43
2017-12-20T23:55:17.324Z,14.23
